createdAt,value
2018-12-22T00:01:20.480Z,98354.00
2018-12-22T00:06:47.777Z,98363.00
2018-12-22T00:09:17.534Z,98355.00
2018-12-22T00:11:47.177Z,98354.00
2018-12-22T00:14:17.573Z,98370.00
2018-12-22T00:16:47.282Z,98368.00
2018-12-22T00:19:16.931Z,98370.00
2018-12-22T00:21:46.533Z,98363.00
2018-12-22T00:24:16.125Z,98370.00
2018-12-22T00:26:45.889Z,98383.00
2018-12-22T00:29:15.777Z,98383.00
2018-12-22T00:31:45.580Z,98380.00
2018-12-22T00:34:15.845Z,98382.00
2018-12-22T00:36:45.293Z,98391.00
2018-12-22T00:39:14.841Z,98386.00
2018-12-22T00:41:44.359Z,98393.00
2018-12-22T00:44:13.897Z,98402.00
2018-12-22T00:46:43.882Z,98393.00
2018-12-22T00:49:13.373Z,98388.00
2018-12-22T00:51:42.920Z,98405.00
2018-12-22T00:54:12.807Z,98396.00
2018-12-22T00:56:42.873Z,98399.00
2018-12-22T00:59:13.178Z,98410.00
2018-12-22T01:01:43.085Z,98424.00
2018-12-22T01:04:12.810Z,98419.00
2018-12-22T01:06:42.507Z,98422.00
2018-12-22T01:09:12.039Z,98429.00
2018-12-22T01:11:41.992Z,98424.00
2018-12-22T01:14:12.143Z,98431.00
2018-12-22T01:16:41.759Z,98434.00
2018-12-22T01:19:11.736Z,98441.00
2018-12-22T01:21:41.582Z,98433.00
2018-12-22T01:24:11.588Z,98443.00
2018-12-22T01:26:41.845Z,98449.00
2018-12-22T01:29:12.542Z,98450.00
2018-12-22T01:31:42.153Z,98460.00
2018-12-22T01:34:11.668Z,98455.00
2018-12-22T01:36:41.385Z,98459.00
2018-12-22T01:39:11.590Z,98453.00
2018-12-22T01:41:41.450Z,98450.00
2018-12-22T01:44:12.238Z,98447.00
2018-12-22T01:46:42.208Z,98450.00
2018-12-22T01:49:11.826Z,98456.00
2018-12-22T01:51:42.478Z,98455.00
2018-12-22T01:54:12.091Z,98442.00
2018-12-22T01:56:41.928Z,98461.00
2018-12-22T01:59:11.813Z,98458.00
2018-12-22T02:01:41.693Z,98467.00
2018-12-22T02:04:11.548Z,98459.00
2018-12-22T02:06:41.298Z,98458.00
2018-12-22T02:09:11.063Z,98459.00
2018-12-22T02:11:40.681Z,98461.00
2018-12-22T02:14:10.453Z,98468.00
2018-12-22T02:16:39.954Z,98467.00
2018-12-22T02:19:09.491Z,98456.00
2018-12-22T02:21:40.090Z,98457.00
2018-12-22T02:24:09.992Z,98461.00
2018-12-22T02:26:39.708Z,98459.00
2018-12-22T02:29:09.486Z,98452.00
2018-12-22T02:31:39.333Z,98466.00
2018-12-22T02:34:09.113Z,98454.00
2018-12-22T02:36:39.041Z,98461.00
2018-12-22T02:39:08.692Z,98469.00
2018-12-22T02:41:39.025Z,98468.00
2018-12-22T02:44:09.142Z,98469.00
2018-12-22T02:46:39.246Z,98489.00
2018-12-22T02:49:08.901Z,98485.00
2018-12-22T02:51:38.499Z,98483.00
2018-12-22T02:54:08.214Z,98482.00
2018-12-22T02:56:38.453Z,98484.00
2018-12-22T02:59:08.650Z,98484.00
2018-12-22T03:01:38.279Z,98496.00
2018-12-22T03:04:08.201Z,98492.00
2018-12-22T03:06:38.027Z,98501.00
2018-12-22T03:09:08.056Z,98501.00
2018-12-22T03:11:37.829Z,98505.00
2018-12-22T03:14:07.522Z,98511.00
2018-12-22T03:16:37.126Z,98513.00
2018-12-22T03:19:07.384Z,98522.00
2018-12-22T03:21:37.061Z,98534.00
2018-12-22T03:24:06.775Z,98535.00
2018-12-22T03:26:36.410Z,98545.00
2018-12-22T03:29:15.223Z,98554.00
2018-12-22T03:31:37.742Z,98553.00
2018-12-22T03:34:07.607Z,98552.00
2018-12-22T03:36:37.089Z,98554.00
2018-12-22T03:39:09.408Z,98553.00
2018-12-22T03:41:38.943Z,98559.00
2018-12-22T03:44:09.224Z,98555.00
2018-12-22T03:46:38.945Z,98553.00
2018-12-22T03:49:08.593Z,98560.00
2018-12-22T03:51:38.936Z,98561.00
2018-12-22T03:54:08.569Z,98555.00
2018-12-22T03:56:38.300Z,98555.00
2018-12-22T03:59:08.014Z,98567.00
2018-12-22T04:01:37.884Z,98573.00
2018-12-22T04:04:07.424Z,98571.00
2018-12-22T04:06:37.777Z,98578.00
2018-12-22T04:09:09.245Z,98568.00
2018-12-22T04:11:39.196Z,98567.00
2018-12-22T04:14:08.804Z,98555.00
2018-12-22T04:16:38.548Z,98561.00
2018-12-22T04:19:08.133Z,98562.00
2018-12-22T04:21:39.028Z,98564.00
2018-12-22T04:24:08.709Z,98564.00
2018-12-22T04:26:38.412Z,98557.00
2018-12-22T04:29:08.858Z,98553.00
2018-12-22T04:31:38.646Z,98556.00
2018-12-22T04:34:08.275Z,98555.00
2018-12-22T04:36:39.036Z,98553.00
2018-12-22T04:39:09.426Z,98559.00
2018-12-22T04:41:39.203Z,98564.00
2018-12-22T04:44:09.157Z,98555.00
2018-12-22T04:46:38.775Z,98560.00
2018-12-22T04:49:08.680Z,98550.00
2018-12-22T04:51:38.584Z,98557.00
2018-12-22T04:54:08.505Z,98555.00
2018-12-22T04:56:38.848Z,98558.00
2018-12-22T04:59:08.544Z,98563.00
2018-12-22T05:01:38.377Z,98561.00
2018-12-22T05:04:08.653Z,98561.00
2018-12-22T05:06:39.798Z,98569.00
2018-12-22T05:09:10.153Z,98564.00
2018-12-22T05:11:40.056Z,98565.00
2018-12-22T05:14:11.326Z,98568.00
2018-12-22T05:16:41.243Z,98572.00
2018-12-22T05:19:11.584Z,98570.00
2018-12-22T05:21:41.557Z,98577.00
2018-12-22T05:24:11.361Z,98577.00
2018-12-22T05:26:42.153Z,98571.00
2018-12-22T05:29:11.933Z,98578.00
2018-12-22T05:31:41.863Z,98586.00
2018-12-22T05:34:12.991Z,98572.00
2018-12-22T05:36:42.844Z,98583.00
2018-12-22T05:39:12.779Z,98562.00
2018-12-22T05:41:43.037Z,98567.00
2018-12-22T05:44:13.728Z,98564.00
2018-12-22T05:46:43.548Z,98572.00
2018-12-22T05:49:13.954Z,98568.00
2018-12-22T05:51:43.996Z,98583.00
2018-12-22T05:54:13.543Z,98587.00
2018-12-22T05:56:43.940Z,98589.00
2018-12-22T05:59:13.612Z,98584.00
2018-12-22T06:01:44.043Z,98583.00
2018-12-22T06:04:15.271Z,98589.00
2018-12-22T06:06:45.021Z,98583.00
2018-12-22T06:09:14.570Z,98583.00
2018-12-22T06:11:44.954Z,98585.00
2018-12-22T06:14:14.674Z,98581.00
2018-12-22T06:16:44.351Z,98587.00
2018-12-22T06:19:13.975Z,98587.00
2018-12-22T06:21:43.835Z,98581.00
2018-12-22T06:24:13.317Z,98585.00
2018-12-22T06:26:43.031Z,98576.00
2018-12-22T06:29:12.795Z,98576.00
2018-12-22T06:31:42.677Z,98575.00
2018-12-22T06:34:12.349Z,98575.00
2018-12-22T06:36:41.958Z,98571.00
2018-12-22T06:39:12.830Z,98570.00
2018-12-22T06:41:42.523Z,98568.00
2018-12-22T06:44:12.135Z,98572.00
2018-12-22T06:46:42.472Z,98578.00
2018-12-22T06:49:12.165Z,98572.00
2018-12-22T06:51:41.633Z,98581.00
2018-12-22T06:54:11.208Z,98584.00
2018-12-22T06:56:40.857Z,98583.00
2018-12-22T06:59:10.417Z,98580.00
2018-12-22T07:01:40.046Z,98578.00
2018-12-22T07:04:09.830Z,98575.00
2018-12-22T07:06:41.592Z,98577.00
2018-12-22T07:09:11.563Z,98582.00
2018-12-22T07:11:42.088Z,98581.00
2018-12-22T07:14:12.970Z,98586.00
2018-12-22T07:16:42.614Z,98582.00
2018-12-22T07:19:12.331Z,98597.00
2018-12-22T07:21:42.983Z,98589.00
2018-12-22T07:24:13.466Z,98592.00
2018-12-22T07:26:43.236Z,98591.00
2018-12-22T07:29:12.931Z,98589.00
2018-12-22T07:31:42.632Z,98598.00
2018-12-22T07:34:12.132Z,98590.00
2018-12-22T07:36:41.820Z,98600.00
2018-12-22T07:39:11.377Z,98598.00
2018-12-22T07:41:40.821Z,98594.00
2018-12-22T07:44:10.523Z,98590.00
2018-12-22T07:46:40.908Z,98589.00
2018-12-22T07:49:10.443Z,98578.00
2018-12-22T07:51:40.035Z,98586.00
2018-12-22T07:54:09.553Z,98592.00
2018-12-22T07:56:39.479Z,98581.00
2018-12-22T07:59:10.035Z,98581.00
2018-12-22T08:01:39.712Z,98567.00
2018-12-22T08:04:09.898Z,98580.00
2018-12-22T08:06:39.672Z,98586.00
2018-12-22T08:09:11.291Z,98575.00
2018-12-22T08:11:40.976Z,98572.00
2018-12-22T08:14:12.061Z,98569.00
2018-12-22T08:16:41.777Z,98575.00
2018-12-22T08:19:11.355Z,98572.00
2018-12-22T08:21:41.202Z,98574.00
2018-12-22T08:24:11.914Z,98578.00
2018-12-22T08:26:41.542Z,98570.00
2018-12-22T08:29:11.701Z,98572.00
2018-12-22T08:31:41.371Z,98578.00
2018-12-22T08:34:10.849Z,98574.00
2018-12-22T08:36:40.383Z,98571.00
2018-12-22T08:39:11.558Z,98577.00
2018-12-22T08:41:41.344Z,98578.00
2018-12-22T08:44:11.113Z,98576.00
2018-12-22T08:46:42.513Z,98585.00
2018-12-22T08:49:12.159Z,98580.00
2018-12-22T08:51:41.903Z,98570.00
2018-12-22T08:54:12.675Z,98569.00
2018-12-22T08:56:42.974Z,98558.00
2018-12-22T08:59:13.628Z,98558.00
2018-12-22T09:01:43.271Z,98550.00
2018-12-22T09:04:12.879Z,98556.00
2018-12-22T09:06:42.487Z,98550.00
2018-12-22T09:09:12.318Z,98550.00
2018-12-22T09:11:41.872Z,98555.00
2018-12-22T09:14:11.398Z,98550.00
2018-12-22T09:16:41.206Z,98548.00
2018-12-22T09:19:11.769Z,98543.00
2018-12-22T09:21:41.430Z,98544.00
2018-12-22T09:24:11.084Z,98529.00
2018-12-22T09:26:40.598Z,98527.00
2018-12-22T09:29:10.319Z,98535.00
2018-12-22T09:31:47.320Z,98534.00
2018-12-22T09:34:17.712Z,98539.00
2018-12-22T09:36:48.516Z,98537.00
2018-12-22T09:39:18.013Z,98544.00
2018-12-22T09:41:47.817Z,98540.00
2018-12-22T09:44:17.310Z,98543.00
2018-12-22T09:46:46.873Z,98564.00
2018-12-22T09:49:16.349Z,98559.00
2018-12-22T09:51:45.818Z,98552.00
2018-12-22T09:54:15.444Z,98551.00
2018-12-22T09:56:45.990Z,98561.00
2018-12-22T09:59:15.471Z,98561.00
2018-12-22T10:01:45.040Z,98563.00
2018-12-22T10:04:14.720Z,98570.00
2018-12-22T10:06:44.170Z,98580.00
2018-12-22T10:09:13.761Z,98586.00
2018-12-22T10:11:43.283Z,98572.00
2018-12-22T10:14:13.121Z,98586.00
2018-12-22T10:16:43.550Z,98574.00
2018-12-22T10:19:13.018Z,98587.00
2018-12-22T10:21:42.561Z,98565.00
2018-12-22T10:24:12.067Z,98601.00
2018-12-22T10:26:42.413Z,98589.00
2018-12-22T10:29:12.144Z,98604.00
2018-12-22T10:31:41.843Z,98611.00
2018-12-22T10:34:11.470Z,98608.00
2018-12-22T10:36:41.098Z,98622.00
2018-12-22T10:39:10.538Z,98639.00
2018-12-22T10:41:40.963Z,98647.00
2018-12-22T10:44:10.416Z,98653.00
2018-12-22T10:46:40.251Z,98653.00
2018-12-22T10:49:09.838Z,98659.00
2018-12-22T10:51:39.991Z,98677.00
2018-12-22T10:54:09.444Z,98674.00
2018-12-22T10:56:38.857Z,98672.00
2018-12-22T10:59:08.300Z,98689.00
2018-12-22T11:01:38.211Z,98675.00
2018-12-22T11:04:08.669Z,98695.00
2018-12-22T11:06:38.120Z,98696.00
2018-12-22T11:09:12.506Z,98702.00
2018-12-22T11:11:42.945Z,98707.00
2018-12-22T11:14:14.370Z,98722.00
2018-12-22T11:16:45.640Z,98719.00
2018-12-22T11:19:17.112Z,98723.00
2018-12-22T11:21:46.917Z,98721.00
2018-12-22T11:24:16.715Z,98745.00
2018-12-22T11:26:46.952Z,98761.00
2018-12-22T11:29:16.548Z,98763.00
2018-12-22T11:31:46.150Z,98754.00
2018-12-22T11:34:15.591Z,98770.00
2018-12-22T11:36:45.155Z,98775.00
2018-12-22T11:39:14.555Z,98786.00
2018-12-22T11:41:44.113Z,98787.00
2018-12-22T11:44:13.583Z,98808.00
2018-12-22T11:46:43.178Z,98803.00
2018-12-22T11:49:30.310Z,98803.00
2018-12-22T11:51:59.935Z,98781.00
2018-12-22T11:54:29.498Z,98791.00
2018-12-22T11:56:59.291Z,98803.00
2018-12-22T11:59:28.875Z,98796.00
2018-12-22T12:01:58.482Z,98810.00
2018-12-22T12:04:28.061Z,98824.00
2018-12-22T12:06:58.025Z,98828.00
2018-12-22T12:09:27.656Z,98832.00
2018-12-22T12:11:57.178Z,98848.00
2018-12-22T12:14:28.237Z,98854.00
2018-12-22T12:19:12.461Z,98853.00
2018-12-22T12:21:42.409Z,98891.00
2018-12-22T12:24:12.370Z,98893.00
2018-12-22T12:26:41.912Z,98896.00
2018-12-22T12:29:14.232Z,98904.00
2018-12-22T12:31:51.890Z,98904.00
2018-12-22T12:34:17.084Z,98914.00
2018-12-22T12:36:47.110Z,98923.00
2018-12-22T12:39:19.085Z,98924.00
2018-12-22T12:41:49.517Z,98924.00
2018-12-22T12:44:19.708Z,98933.00
2018-12-22T12:46:52.085Z,98948.00
2018-12-22T12:49:22.747Z,98945.00
2018-12-22T12:51:52.450Z,98959.00
2018-12-22T12:54:22.900Z,98972.00
2018-12-22T12:56:58.580Z,98969.00
2018-12-22T12:59:30.750Z,98987.00
2018-12-22T13:02:01.520Z,98997.00
2018-12-22T13:04:31.167Z,99005.00
2018-12-22T13:07:00.710Z,99009.00
2018-12-22T13:09:30.736Z,99013.00
2018-12-22T13:12:09.284Z,99015.00
2018-12-22T13:14:40.357Z,99025.00
2018-12-22T13:17:10.664Z,99036.00
2018-12-22T13:19:40.737Z,99053.00
2018-12-22T13:22:11.357Z,99042.00
2018-12-22T13:24:41.043Z,99056.00
2018-12-22T13:27:10.881Z,99070.00
2018-12-22T13:29:40.877Z,99066.00
2018-12-22T13:32:10.695Z,99077.00
2018-12-22T13:34:42.443Z,99083.00
2018-12-22T13:37:12.166Z,99098.00
2018-12-22T13:39:42.186Z,99095.00
2018-12-22T13:42:11.871Z,99107.00
2018-12-22T13:44:41.548Z,99112.00
2018-12-22T13:47:11.713Z,99111.00
2018-12-22T13:49:41.480Z,99120.00
2018-12-22T13:52:11.519Z,99115.00
2018-12-22T13:54:41.179Z,99131.00
2018-12-22T13:57:11.230Z,99121.00
2018-12-22T13:59:40.992Z,99133.00
2018-12-22T14:02:17.987Z,99145.00
2018-12-22T14:04:42.596Z,99157.00
2018-12-22T14:07:17.382Z,99165.00
2018-12-22T14:09:46.958Z,99162.00
2018-12-22T14:12:17.514Z,99171.00
2018-12-22T14:14:48.385Z,99169.00
2018-12-22T14:17:29.395Z,99180.00
2018-12-22T14:20:05.001Z,99183.00
2018-12-22T14:22:36.942Z,99193.00
2018-12-22T14:25:15.397Z,99186.00
2018-12-22T14:27:47.318Z,99202.00
2018-12-22T14:30:18.200Z,99213.00
2018-12-22T14:32:48.044Z,99225.00
2018-12-22T14:35:42.029Z,99220.00
2018-12-22T14:38:12.312Z,99240.00
2018-12-22T14:40:43.752Z,99243.00
2018-12-22T14:43:13.604Z,99257.00
2018-12-22T14:45:44.913Z,99263.00
2018-12-22T14:48:15.464Z,99276.00
2018-12-22T14:50:45.406Z,99280.00
2018-12-22T14:53:16.035Z,99279.00
2018-12-22T14:55:45.884Z,99284.00
2018-12-22T14:58:21.173Z,99290.00
2018-12-22T15:00:51.760Z,99298.00
2018-12-22T15:03:23.253Z,99292.00
2018-12-22T15:05:53.034Z,99307.00
2018-12-22T15:08:23.808Z,99307.00
2018-12-22T15:10:53.967Z,99313.00
2018-12-22T15:13:23.851Z,99312.00
2018-12-22T15:15:54.353Z,99317.00
2018-12-22T15:18:24.377Z,99317.00
2018-12-22T15:20:56.703Z,99324.00
2018-12-22T15:23:26.397Z,99316.00
2018-12-22T15:25:56.230Z,99324.00
2018-12-22T15:28:26.209Z,99316.00
2018-12-22T15:30:55.817Z,99325.00
2018-12-22T15:33:25.577Z,99330.00
2018-12-22T15:35:55.635Z,99326.00
2018-12-22T15:38:25.396Z,99331.00
2018-12-22T15:40:55.235Z,99334.00
2018-12-22T15:43:25.592Z,99332.00
2018-12-22T15:45:56.848Z,99340.00
2018-12-22T15:48:26.726Z,99334.00
2018-12-22T15:50:57.296Z,99332.00
2018-12-22T15:53:28.461Z,99335.00
2018-12-22T15:56:00.368Z,99349.00
2018-12-22T15:58:30.904Z,99341.00
2018-12-22T16:01:05.423Z,99351.00
2018-12-22T16:03:35.865Z,99347.00
2018-12-22T16:08:48.880Z,99352.00
2018-12-22T16:14:06.940Z,99357.00
2018-12-22T16:16:38.571Z,99358.00
2018-12-22T16:19:09.692Z,99350.00
2018-12-22T16:21:44.003Z,99360.00
2018-12-22T16:24:14.530Z,99370.00
2018-12-22T16:26:44.712Z,99364.00
2018-12-22T16:29:23.314Z,99359.00
2018-12-22T16:31:53.392Z,99365.00
2018-12-22T16:34:23.303Z,99360.00
2018-12-22T16:36:53.088Z,99364.00
2018-12-22T16:39:29.335Z,99361.00
2018-12-22T16:42:05.137Z,99364.00
2018-12-22T16:44:35.111Z,99368.00
2018-12-22T16:47:07.740Z,99368.00
2018-12-22T16:49:44.989Z,99366.00
2018-12-22T16:52:15.250Z,99356.00
2018-12-22T16:54:47.761Z,99356.00
2018-12-22T16:57:18.181Z,99369.00
2018-12-22T16:59:50.520Z,99373.00
2018-12-22T17:02:34.989Z,99373.00
2018-12-22T17:05:06.048Z,99370.00
2018-12-22T17:07:37.427Z,99378.00
2018-12-22T17:10:08.780Z,99385.00
2018-12-22T17:12:38.610Z,99379.00
2018-12-22T17:15:11.087Z,99394.00
2018-12-22T17:17:42.806Z,99383.00
2018-12-22T17:20:14.790Z,99386.00
2018-12-22T17:23:35.034Z,99389.00
2018-12-22T17:26:11.185Z,99389.00
2018-12-22T17:28:43.750Z,99385.00
2018-12-22T17:31:16.067Z,99382.00
2018-12-22T17:33:46.488Z,99390.00
2018-12-22T17:36:19.241Z,99396.00
2018-12-22T17:38:52.511Z,99392.00
2018-12-22T17:41:29.532Z,99393.00
2018-12-22T17:44:05.356Z,99396.00
2018-12-22T17:46:40.164Z,99397.00
2018-12-22T17:49:12.990Z,99403.00
2018-12-22T17:51:45.980Z,99400.00
2018-12-22T17:54:20.063Z,99398.00
2018-12-22T17:56:52.530Z,99405.00
2018-12-22T17:59:25.704Z,99407.00
2018-12-22T18:01:56.953Z,99411.00
2018-12-22T18:04:29.683Z,99399.00
2018-12-22T18:07:01.007Z,99397.00
2018-12-22T18:09:34.432Z,99410.00
2018-12-22T18:12:05.814Z,99399.00
2018-12-22T18:14:36.333Z,99393.00
2018-12-22T18:17:07.351Z,99407.00
2018-12-22T18:19:38.772Z,99403.00
2018-12-22T18:22:10.486Z,99413.00
2018-12-22T18:24:43.823Z,99405.00
2018-12-22T18:27:13.527Z,99406.00
2018-12-22T18:29:43.559Z,99411.00
2018-12-22T18:32:15.342Z,99412.00
2018-12-22T18:34:45.379Z,99424.00
2018-12-22T18:37:22.566Z,99424.00
2018-12-22T18:39:53.852Z,99413.00
2018-12-22T18:42:25.658Z,99420.00
2018-12-22T18:44:56.679Z,99412.00
2018-12-22T18:47:28.560Z,99413.00
2018-12-22T18:50:03.077Z,99413.00
2018-12-22T18:52:35.480Z,99424.00
2018-12-22T18:55:08.503Z,99423.00
2018-12-22T18:57:41.664Z,99420.00
2018-12-22T19:00:19.016Z,99426.00
2018-12-22T19:02:49.784Z,99433.00
2018-12-22T19:05:21.803Z,99427.00
2018-12-22T19:07:58.180Z,99429.00
2018-12-22T19:10:40.801Z,99424.00
2018-12-22T19:13:10.687Z,99437.00
2018-12-22T19:15:40.957Z,99439.00
2018-12-22T19:18:10.681Z,99432.00
2018-12-22T19:20:46.367Z,99431.00
2018-12-22T19:23:16.369Z,99440.00
2018-12-22T19:25:46.602Z,99441.00
2018-12-22T19:28:17.697Z,99437.00
2018-12-22T19:30:50.223Z,99440.00
2018-12-22T19:33:20.274Z,99436.00
2018-12-22T19:35:51.141Z,99436.00
2018-12-22T19:38:21.079Z,99436.00
2018-12-22T19:40:53.629Z,99436.00
2018-12-22T19:43:23.844Z,99440.00
2018-12-22T19:45:54.439Z,99432.00
2018-12-22T19:48:24.767Z,99437.00
2018-12-22T19:50:54.694Z,99439.00
2018-12-22T19:53:28.290Z,99427.00
2018-12-22T19:56:02.518Z,99444.00
2018-12-22T19:58:34.418Z,99445.00
2018-12-22T20:01:04.147Z,99446.00
2018-12-22T20:03:34.508Z,99450.00
2018-12-22T20:06:04.443Z,99455.00
2018-12-22T20:08:34.945Z,99446.00
2018-12-22T20:11:04.914Z,99451.00
2018-12-22T20:13:34.743Z,99468.00
2018-12-22T20:16:08.871Z,99464.00
2018-12-22T20:18:36.971Z,99466.00
2018-12-22T20:21:06.767Z,99457.00
2018-12-22T20:23:36.528Z,99462.00
2018-12-22T20:26:06.594Z,99454.00
2018-12-22T20:28:36.605Z,99466.00
2018-12-22T20:31:06.749Z,99461.00
2018-12-22T20:33:36.485Z,99464.00
2018-12-22T20:36:06.100Z,99468.00
2018-12-22T20:38:36.399Z,99469.00
2018-12-22T20:41:06.344Z,99473.00
2018-12-22T20:43:36.203Z,99474.00
2018-12-22T20:46:05.794Z,99478.00
2018-12-22T20:48:35.903Z,99482.00
2018-12-22T20:51:05.869Z,99487.00
2018-12-22T20:53:37.338Z,99479.00
2018-12-22T20:56:07.429Z,99479.00
2018-12-22T20:58:37.902Z,99482.00
2018-12-22T21:01:09.951Z,99486.00
2018-12-22T21:03:42.898Z,99490.00
2018-12-22T21:06:20.564Z,99485.00
2018-12-22T21:08:51.196Z,99483.00
2018-12-22T21:11:23.800Z,99491.00
2018-12-22T21:13:54.910Z,99491.00
2018-12-22T21:16:27.291Z,99487.00
2018-12-22T21:19:01.584Z,99497.00
2018-12-22T21:21:32.326Z,99502.00
2018-12-22T21:24:07.020Z,99508.00
2018-12-22T21:26:38.532Z,99509.00
2018-12-22T21:29:14.806Z,99511.00
2018-12-22T21:31:47.715Z,99504.00
2018-12-22T21:34:17.343Z,99516.00
2018-12-22T21:36:46.773Z,99513.00
2018-12-22T21:39:16.500Z,99510.00
2018-12-22T21:41:45.914Z,99517.00
2018-12-22T21:44:15.422Z,99521.00
2018-12-22T21:46:45.025Z,99530.00
2018-12-22T21:49:15.520Z,99528.00
2018-12-22T21:51:46.425Z,99528.00
2018-12-22T21:54:16.800Z,99531.00
2018-12-22T21:56:46.906Z,99530.00
2018-12-22T21:59:16.333Z,99527.00
2018-12-22T22:01:45.797Z,99536.00
2018-12-22T22:04:15.540Z,99530.00
2018-12-22T22:06:45.030Z,99536.00
2018-12-22T22:09:14.803Z,99545.00
2018-12-22T22:11:44.349Z,99545.00
2018-12-22T22:14:14.408Z,99521.00
2018-12-22T22:16:43.980Z,99540.00
2018-12-22T22:19:13.924Z,99551.00
2018-12-22T22:21:43.313Z,99551.00
2018-12-22T22:24:12.731Z,99556.00
2018-12-22T22:26:42.240Z,99553.00
2018-12-22T22:29:11.631Z,99552.00
2018-12-22T22:31:41.034Z,99560.00
2018-12-22T22:34:10.486Z,99557.00
2018-12-22T22:36:39.871Z,99560.00
2018-12-22T22:39:09.306Z,99564.00
2018-12-22T22:41:38.641Z,99568.00
2018-12-22T22:44:08.035Z,99562.00
2018-12-22T22:46:37.448Z,99576.00
2018-12-22T22:49:06.816Z,99575.00
2018-12-22T22:51:36.326Z,99579.00
2018-12-22T22:54:05.847Z,99575.00
2018-12-22T22:56:35.284Z,99575.00
2018-12-22T22:59:05.161Z,99573.00
2018-12-22T23:01:34.698Z,99583.00
2018-12-22T23:04:04.229Z,99585.00
2018-12-22T23:06:33.693Z,99583.00
2018-12-22T23:09:03.555Z,99582.00
2018-12-22T23:11:32.967Z,99584.00
2018-12-22T23:14:02.358Z,99578.00
2018-12-22T23:16:31.692Z,99586.00
2018-12-22T23:19:01.068Z,99574.00
2018-12-22T23:21:30.659Z,99575.00
2018-12-22T23:24:00.076Z,99582.00
2018-12-22T23:26:29.480Z,99588.00
2018-12-22T23:28:58.893Z,99581.00
2018-12-22T23:31:28.305Z,99584.00
2018-12-22T23:33:57.743Z,99583.00
2018-12-22T23:36:27.318Z,99589.00
2018-12-22T23:38:56.826Z,99594.00
2018-12-22T23:41:26.221Z,99594.00
2018-12-22T23:43:55.612Z,99599.00
2018-12-22T23:46:24.998Z,99603.00
2018-12-22T23:48:54.372Z,99607.00
2018-12-22T23:51:23.787Z,99606.00
2018-12-22T23:53:53.152Z,99615.00
2018-12-22T23:56:22.546Z,99625.00
2018-12-22T23:58:51.898Z,99624.00
